Byfield, Massachusetts
Current Conditions -  °F | °C
As of 10:54 AM on Thursday 18 Dec 2014 (Local Time) from KLWM Reporting Station
Overcast Overcast  
Wind Chill: 33°   Ceiling: 3400
Heat Index: 41°   Visibility: 10mi
Dew Point: 31°   Wind: 15mph
Humidity: 67%   Direction: 290°WNW
Pressure: 29.77"   Gusts: 25mph
Location:  42.76°N, 70.95°W
Report Text: KLWM 181554Z 29013G22KT 10SM BKN034 OVC090 05/M01 A2977 RMK AO2 SLP082 T00501006
Loading
Personal Weather Stations






























Interactive Weather Map New forecast layout! Learn more

10-Day Weather Forecast

Advertisements
Track Severe Weather on mobile